18. August 2022

Uhrzeit Code Wetter Temp. Sichtweite Wolkendecke Wind METAR/SPECI
20:25
V
21 °C 10 km+ - 010° 010° 4 kt METAR EHLE 181825Z AUTO 01004KT 9999 NCD 21/17 Q1013 NOSIG
19:55
V
22 °C 10 km+ - 330° 330° 5 kt METAR EHLE 181755Z AUTO 33005KT 310V020 9999 NCD 22/17 Q1013 NOSIG
19:25
V
23 °C 10 km+ - 330° 330° 7 kt METAR EHLE 181725Z AUTO 33007KT 9999 NCD 23/17 Q1013 NOSIG
18:55
V
24 °C 10 km+ 3.400 ft 350° 350° 4 kt METAR EHLE 181655Z AUTO 35004KT 270V050 9999 BKN034 24/17 Q1013 NOSIG
18:25
V
23 °C 10 km+ - 040° 040° 3 kt METAR EHLE 181625Z AUTO 04003KT 350V080 9999 NCD 23/17 Q1013 NOSIG
17:55
V
23 °C 10 km+ - 030° 030° 3 kt METAR EHLE 181555Z AUTO 03003KT 290V080 9999 NSC 23/17 Q1013 NOSIG
17:25
V
22 °C 10 km+ 4.400 ft 360° 360° 5 kt METAR EHLE 181525Z AUTO 36005KT 9999 -RA FEW022 BKN044 22/18 Q1013 NOSIG
16:55
M
22 °C 10 km+ 2.200 ft 060° 060° 5 kt METAR EHLE 181455Z AUTO 06005KT 020V090 9999 -RA OVC022 22/18 Q1013 NOSIG
16:25
M
23 °C 10 km+ 2.400 ft 030° 030° 3 kt METAR EHLE 181425Z AUTO 03003KT 340V070 9999 BKN024 OVC029 23/17 Q1013 NOSIG
15:55
V
23 °C 10 km+ - Var Var 3 kt METAR EHLE 181355Z AUTO VRB03KT 9999 FEW026 23/18 Q1013 NOSIG
15:25
V
24 °C 10 km+ - 030° 030° 7 kt METAR EHLE 181325Z AUTO 03007KT 340V070 9999 NSC 24/18 Q1013 NOSIG
14:55
V
24 °C 10 km+ - 020° 020° 9 kt METAR EHLE 181255Z AUTO 02009KT 350V080 9999 FEW031 24/19 Q1013 NOSIG
14:25
V
22 °C 10 km+ - 030° 030° 8 kt METAR EHLE 181225Z AUTO 03008KT 350V060 9999 FEW017 SCT022 22/18 Q1013 NOSIG
13:55
V
22 °C 10 km+ - 350° 350° 7 kt METAR EHLE 181155Z AUTO 35007KT 320V030 9999 FEW018 22/18 Q1013 NOSIG
13:25
V
22 °C 10 km+ 3.300 ft 010° 010° 6 kt METAR EHLE 181125Z AUTO 01006KT 330V050 9999 BKN033 BKN044 22/18 Q1014 NOSIG
12:55
M
22 °C 10 km+ 2.000 ft 010° 010° 6 kt METAR EHLE 181055Z AUTO 01006KT 320V060 9999 BKN020 BKN025 22/18 Q1013 NOSIG
12:25
M
22 °C 10 km+ 2.600 ft 350° 350° 6 kt METAR EHLE 181025Z AUTO 35006KT 280V020 9999 SCT021 BKN026 OVC030 22/17 Q1013 NOSIG
11:55
M
23 °C 10 km+ 2.000 ft Var Var 2 kt METAR EHLE 180955Z AUTO VRB02KT 9999 SCT017 BKN020 23/19 Q1013 NOSIG
11:25
M
21 °C 10 km+ 1.600 ft 350° 350° 5 kt METAR EHLE 180925Z AUTO 35005KT 320V030 9999 BKN016 OVC029 21/18 Q1013 REDZ NOSIG
10:55
M
21 °C 10 km+ 1.800 ft 360° 360° 3 kt METAR EHLE 180855Z AUTO 36003KT 290V060 9999 -RA SCT014 BKN018 BKN028 21/18 Q1013 NOSIG
10:25
M
21 °C 10 km+ 2.500 ft 330° 330° 4 kt METAR EHLE 180825Z AUTO 33004KT 290V350 9999 FEW018 SCT022 BKN025 21/18 Q1013 NOSIG
09:55
V
21 °C 10 km+ - 350° 350° 4 kt METAR EHLE 180755Z AUTO 35004KT 320V030 9999 FEW015 SCT025 21/18 Q1013 NOSIG
09:25
M
21 °C 10 km+ 1.400 ft 010° 010° 4 kt METAR EHLE 180725Z AUTO 01004KT 330V070 9999 BKN014 BKN017 21/18 Q1013 BECMG BKN020
08:55
V
20 °C 10 km+ - Var Var 2 kt METAR EHLE 180655Z AUTO VRB02KT 9999 FEW013 20/18 Q1013 NOSIG
08:25
V
18 °C 10 km+ - 310° 310° 2 kt METAR EHLE 180625Z AUTO 31002KT 9999 NCD 18/18 Q1013 NOSIG
07:55
M
17 °C 7 km - 310° 310° 1 kt METAR EHLE 180555Z AUTO 31001KT 7000 FEW041 17/17 Q1013 BECMG 9999
07:25
I
17 °C 3,7 km 3.500 ft 160° 160° 3 kt METAR EHLE 180525Z AUTO 16003KT 050V210 3700 BKN035 BKN045 17/17 Q1013 BECMG 9999
06:55
M
17 °C 5 km - Var Var 2 kt METAR EHLE 180455Z AUTO VRB02KT 5000 FEW031 17/17 Q1013 BECMG 9999
06:25
I
16 °C 3,7 km 2.800 ft 230° 230° 3 kt METAR EHLE 180425Z AUTO 23003KT 3700 BR FEW011 SCT025 BKN028 16/16 Q1013
05:55
L
15 °C 500 m 2.200 ft 220° 220° 3 kt METAR EHLE 180355Z AUTO 22003KT 0500 FG FEW011 BKN022 15/15 Q1013
05:25
L
15 °C 300 m - 230° 230° 3 kt METAR EHLE 180325Z AUTO 23003KT 150V260 0300 FG SCT000 15/15 Q1013
04:55
L
15 °C 400 m - 180° 180° 1 kt METAR EHLE 180255Z AUTO 18001KT 0400 BR NCD 15/15 Q1012
04:25
I
15 °C 3,9 km - 320° 320° 1 kt METAR EHLE 180225Z AUTO 32001KT 3900 BR NSC 15/15 Q1012
03:55
M
16 °C 6 km - Var Var 2 kt METAR EHLE 180155Z AUTO VRB02KT 6000 NSC 16/16 Q1012
03:25
M
17 °C 8 km 1.500 ft Var Var 1 kt METAR EHLE 180125Z AUTO VRB01KT 8000 FEW013 BKN015 17/17 Q1012
02:55
M
17 °C 7 km 1.000 ft Var Var 2 kt METAR EHLE 180055Z AUTO VRB02KT 7000 FEW008 SCT009 OVC010 17/17 Q1012
02:25
M
17 °C 9 km 1.000 ft 360° 360° 4 kt METAR EHLE 180025Z AUTO 36004KT 330V030 9000 SCT008 BKN010 17/17 Q1012
01:55
V
17 °C 10 km+ - 010° 010° 3 kt METAR EHLE 172355Z AUTO 01003KT 9999 NSC 17/17 Q1012
01:25
V
18 °C 10 km+ - 360° 360° 3 kt METAR EHLE 172325Z AUTO 36003KT 320V030 9999 NSC 18/17 Q1012
00:55
V
18 °C 10 km+ - 010° 010° 4 kt METAR EHLE 172255Z AUTO 01004KT 9999 NSC 18/17 Q1012
00:25
V
18 °C 10 km+ - 030° 030° 6 kt METAR EHLE 172225Z AUTO 03006KT 9999 SCT034 18/18 Q1012

17. August 2022

Uhrzeit Code Wetter Temp. Sichtweite Wolkendecke Wind METAR/SPECI
23:55
M
19 °C 10 km+ 2.200 ft 040° 040° 5 kt METAR EHLE 172155Z AUTO 04005KT 9999 BKN022 BKN025 OVC029 19/18 Q1012
23:25
M
19 °C 10 km+ 1.900 ft 360° 360° 5 kt METAR EHLE 172125Z AUTO 36005KT 330V050 9999 -RA FEW015CB OVC019 19/17 Q1012
22:55
M
19 °C 10 km+ 1.400 ft 020° 020° 7 kt METAR EHLE 172055Z AUTO 02007KT 9999 BKN014 FEW015CB OVC016 19/17 Q1012
22:25
M
19 °C 10 km+ 1.400 ft 360° 360° 6 kt METAR EHLE 172025Z AUTO 36006KT 9999 OVC014 19/17 Q1012
21:55
M
19 °C 10 km+ 1.300 ft 360° 360° 6 kt METAR EHLE 171955Z AUTO 36006KT 9999 OVC013/// 19/18 Q1012 TEMPO SCT010
21:25
M
20 °C 10 km+ 1.100 ft 360° 360° 6 kt METAR EHLE 171925Z AUTO 36006KT 9999 OVC011 20/18 Q1012 TEMPO SCT010
20:55
M
20 °C 10 km+ 1.100 ft 010° 010° 5 kt METAR EHLE 171855Z AUTO 01005KT 340V040 9999 SCT009 OVC011 20/18 Q1011 TEMPO SCT010
20:25
M
20 °C 10 km+ 1.000 ft 030° 030° 7 kt METAR EHLE 171825Z AUTO 03007KT 9999 BKN010 OVC012 20/19 Q1011 TEMPO SCT010
19:55
M
20 °C 10 km+ 1.000 ft 040° 040° 9 kt METAR EHLE 171755Z AUTO 04009KT 9999 FEW009 BKN010 OVC013 20/19 Q1011 TEMPO SCT010
19:25
I
20 °C 10 km+ 900 ft 040° 040° 9 kt METAR EHLE 171725Z AUTO 04009KT 350V060 9999 FEW008 BKN009 OVC011 20/19 Q1011 NOSIG
18:55
V
21 °C 9 km - 050° 050° 10 kt METAR EHLE 171655Z AUTO 05010KT 9000 FEW009 21/19 Q1011 NOSIG
18:25
V
21 °C 8 km - 030° 030° 13 kt METAR EHLE 171625Z AUTO 03013KT 8000 FEW007 21/19 Q1010 NOSIG
17:55
M
21 °C 7 km - 020° 020° 12 kt METAR EHLE 171555Z AUTO 02012KT 340V050 7000 FEW006 21/20 Q1010 TEMPO 6000 SHRA
17:25
V
20 °C 9 km 3.500 ft 020° 020° 11 kt METAR EHLE 171525Z AUTO 02011KT 350V050 9000 -RA FEW007 FEW015CB SCT031 BKN035 20/20 Q1011 RERA REDZ TEMPO 6000 SHRA
16:55
V
20 °C 9 km - 010° 010° 8 kt METAR EHLE 171455Z AUTO 01008KT 9000 -SHRA FEW015CB SCT045 20/19 Q1011 RETS TEMPO 6000 SHRA
16:25
V
20 °C 10 km+ - 360° 360° 9 kt METAR EHLE 171425Z AUTO 36009KT 9999 -RA NSC 20/19 Q1011 RERA REDZ TEMPO 6000 RA
15:55
V
20 °C 10 km+ - 350° 350° 9 kt METAR EHLE 171355Z AUTO 35009KT 320V020 9999 DZ NSC 20/19 Q1011 TEMPO 6000 RA
15:25
V
21 °C 8 km - 350° 350° 10 kt METAR EHLE 171325Z AUTO 35010KT 320V020 8000 -RA NSC 21/20 Q1011 TEMPO 6000 RA
14:55
M
20 °C 8 km 1.800 ft 340° 340° 8 kt METAR EHLE 171255Z AUTO 34008KT 8000 SHRA FEW015 BKN018 BKN021 20/19 Q1012 TEMPO 6000 RA
14:25
M
21 °C 10 km+ 1.400 ft Var Var 4 kt METAR EHLE 171225Z AUTO VRB04KT 9999 -RA BKN014 OVC016 21/19 Q1012 TEMPO 6000 RA BECMG BKN015
13:55
M
22 °C 10 km+ 1.400 ft 010° 010° 10 kt METAR EHLE 171155Z AUTO 01010KT 330V050 9999 SCT011 BKN014 OVC016 22/19 Q1011 BECMG BKN015
13:25
M
23 °C 10 km+ 1.200 ft 030° 030° 14 kt METAR EHLE 171125Z AUTO 03014KT 350V060 9999 BKN012 OVC015 23/20 Q1011 NOSIG
12:55
V
20 °C 10 km+ - 020° 020° 11 kt METAR EHLE 171055Z AUTO 02011KT 350V050 9999 -RA NSC 20/18 Q1011 RERA REDZ TEMPO 7000 -SHRA FEW040CB
12:25
V
20 °C 10 km+ - 030° 030° 8 kt METAR EHLE 171025Z AUTO 03008KT 350V060 9999 -RA NSC 20/17 Q1011 TEMPO 7000 -SHRA FEW040CB
11:55
V
20 °C 10 km+ - 030° 030° 9 kt METAR EHLE 170955Z AUTO 03009KT 9999 NSC 20/16 Q1011 TEMPO 7000 -SHRA FEW040CB
11:25
V
20 °C 10 km+ - 020° 020° 11 kt METAR EHLE 170925Z AUTO 02011KT 350V060 9999 TS NSC 20/16 Q1011 TEMPO 7000 -SHRA FEW040CB
10:55
V
19 °C 10 km+ - 030° 030° 9 kt METAR EHLE 170855Z AUTO 03009KT 360V060 9999 FEW017 19/17 Q1011 NOSIG
10:25
V
19 °C 10 km+ - 020° 020° 11 kt METAR EHLE 170825Z AUTO 02011KT 9999 FEW015CB 19/17 Q1011 NOSIG
09:55
V
19 °C 10 km+ - 360° 360° 9 kt METAR EHLE 170755Z AUTO 36009KT 330V040 9999 -RA FEW014 FEW015CB 19/17 Q1010 RERA TEMPO 6000 TSRA FEW040CB
09:25
V
20 °C 10 km+ 4.100 ft 020° 020° 11 kt METAR EHLE 170725Z AUTO 02011KT 9999 -RA FEW015CB SCT037 BKN041 20/18 Q1010 NOSIG
08:55
V
20 °C 10 km+ - 010° 010° 12 kt METAR EHLE 170655Z AUTO 01012KT 9999 FEW015CB 20/19 Q1010 TEMPO 7000 SHRA SCT040CB
08:25
V
20 °C 10 km+ - 020° 020° 9 kt METAR EHLE 170625Z AUTO 02009KT 9999 -RA FEW009 FEW015CB SCT041 20/19 Q1010 TEMPO 7000 SHRA SCT040CB
07:55
V
20 °C 10 km+ - 340° 340° 8 kt METAR EHLE 170555Z AUTO 34008KT 320V020 9999 NSC 20/19 Q1010 TEMPO 7000 SHRA SCT040CB
07:25
V
20 °C 10 km+ - 330° 330° 6 kt METAR EHLE 170525Z AUTO 33006KT 290V010 9999 -RA FEW017 SCT043 20/19 Q1010 TEMPO 7000 SHRA SCT040CB
06:55
M
20 °C 6 km - 330° 330° 7 kt METAR EHLE 170455Z AUTO 33007KT 6000 FEW015CB 20/19 Q1010 REDZ BECMG 9999
06:25
V
19 °C 10 km+ - 340° 340° 7 kt METAR EHLE 170425Z AUTO 34007KT 310V010 9999 FEW015CB 19/18 Q1010 REDZ
05:55
V
19 °C 9 km - 330° 330° 4 kt METAR EHLE 170355Z AUTO 33004KT 300V360 9000 -RADZ FEW015CB 19/17 Q1010 RETS
05:25
M
18 °C 6 km - 270° 270° 9 kt METAR EHLE 170325Z AUTO 27009KT 240V340 6000 TS FEW015CB 18/17 Q1010 REDZ
04:55
V
18 °C 8 km - Var Var 1 kt METAR EHLE 170255Z AUTO VRB01KT 8000 -RA FEW015CB 18/17 Q1010 RERA REDZ
04:25
V
19 °C 10 km+ - 070° 070° 5 kt METAR EHLE 170225Z AUTO 07005KT 9999 -RA NSC 19/17 Q1010
03:55
M
18 °C 7 km - 040° 040° 5 kt METAR EHLE 170155Z AUTO 04005KT 7000 BR NSC 18/16 Q1010
03:25
M
18 °C 5 km - 050° 050° 6 kt METAR EHLE 170125Z AUTO 05006KT 5000 BR NSC 18/16 Q1010
02:55
M
17 °C 7 km - 040° 040° 5 kt METAR EHLE 170055Z AUTO 04005KT 7000 NSC 17/16 Q1010
02:25
M
18 °C 7 km - 050° 050° 5 kt METAR EHLE 170025Z AUTO 05005KT 7000 NSC 18/16 Q1010
01:55
V
18 °C 10 km+ - 050° 050° 4 kt METAR EHLE 162355Z AUTO 05004KT 040V100 9999 NCD 18/16 Q1010
01:25
V
18 °C 10 km+ - 030° 030° 4 kt METAR EHLE 162325Z AUTO 03004KT 9999 NCD 18/17 Q1010
00:55
V
18 °C 10 km+ - 050° 050° 4 kt METAR EHLE 162255Z AUTO 05004KT 9999 NSC 18/16 Q1010
00:25
V
20 °C 10 km+ - 080° 080° 3 kt METAR EHLE 162225Z AUTO 08003KT 9999 NSC 20/17 Q1010

16. August 2022

Uhrzeit Code Wetter Temp. Sichtweite Wolkendecke Wind METAR/SPECI
23:55
V
20 °C 10 km+ - 060° 060° 3 kt METAR EHLE 162155Z AUTO 06003KT 9999 NSC 20/17 Q1010
23:25
V
20 °C 10 km+ - 070° 070° 3 kt METAR EHLE 162125Z AUTO 07003KT 9999 NSC 20/18 Q1010
22:55
V
20 °C 10 km+ - Var Var 2 kt METAR EHLE 162055Z AUTO VRB02KT 9999 NSC 20/18 Q1010
22:25
V
20 °C 10 km+ - 030° 030° 2 kt METAR EHLE 162025Z AUTO 03002KT 9999 NSC 20/18 Q1010 NOSIG
21:55
V
21 °C 10 km+ - 020° 020° 3 kt METAR EHLE 161955Z AUTO 02003KT 9999 NSC 21/19 Q1010 NOSIG
21:25
V
21 °C 10 km+ - 350° 350° 3 kt METAR EHLE 161925Z AUTO 35003KT 9999 NSC 21/18 Q1009 NOSIG
20:55
V
22 °C 10 km+ - 320° 320° 4 kt METAR EHLE 161855Z AUTO 32004KT 9999 NSC 22/18 Q1009 NOSIG
20:25
V
23 °C 10 km+ - 310° 310° 4 kt METAR EHLE 161825Z AUTO 31004KT 9999 NSC 23/18 Q1009 NOSIG
19:55
V
24 °C 10 km+ - 310° 310° 5 kt METAR EHLE 161755Z AUTO 31005KT 280V340 9999 NSC 24/18 Q1009 NOSIG
19:25
V
25 °C 10 km+ - 300° 300° 5 kt METAR EHLE 161725Z AUTO 30005KT 260V340 9999 NSC 25/19 Q1009 NOSIG
18:55
V
25 °C 10 km+ - 310° 310° 7 kt METAR EHLE 161655Z AUTO 31007KT 280V350 9999 NSC 25/19 Q1009 NOSIG
18:25
V
24 °C 10 km+ - 290° 290° 6 kt METAR EHLE 161625Z AUTO 29006KT 260V330 9999 NSC 24/18 Q1009 NOSIG
17:55
V
25 °C 10 km+ - 320° 320° 7 kt METAR EHLE 161555Z AUTO 32007KT 270V350 9999 NSC 25/19 Q1008 NOSIG
17:25
V
25 °C 10 km+ - 310° 310° 7 kt METAR EHLE 161525Z AUTO 31007KT 280V340 9999 NSC 25/18 Q1008 NOSIG
16:55
V
25 °C 10 km+ - 310° 310° 8 kt METAR EHLE 161455Z AUTO 31008KT 270V360 9999 NSC 25/19 Q1008 NOSIG
Ältere Daten

Wir und Dritte verfolgen dein Internetverhalten auf unserer Website mit Cookies. Wenn du fortfährst, gehen wir davon aus, dass du mit unserer Cookie-Richtlinie einverstanden bist. Mehr erfahren